createdAt,value
2018-10-02T00:01:30.278Z,46.30
2018-10-02T00:06:33.866Z,46.30
2018-10-02T00:11:42.584Z,46.30
2018-10-02T00:16:46.006Z,46.50
2018-10-02T00:21:49.212Z,47.10
2018-10-02T00:26:52.402Z,46.50
2018-10-02T00:31:55.695Z,46.60
2018-10-02T00:36:58.889Z,46.60
2018-10-02T00:42:02.162Z,46.60
2018-10-02T00:47:06.290Z,46.70
2018-10-02T00:52:09.580Z,46.70
2018-10-02T00:57:12.795Z,46.70
2018-10-02T01:02:16.125Z,46.80
2018-10-02T01:07:19.320Z,46.70
2018-10-02T01:12:22.554Z,46.80
2018-10-02T01:17:25.716Z,47.40
2018-10-02T01:22:28.892Z,46.70
2018-10-02T01:27:32.048Z,46.70
2018-10-02T01:32:35.396Z,46.70
2018-10-02T01:37:38.815Z,46.70
2018-10-02T01:42:42.263Z,46.70
2018-10-02T01:47:45.570Z,46.70
2018-10-02T01:52:48.782Z,46.70
2018-10-02T01:57:51.999Z,46.70
2018-10-02T02:02:55.595Z,46.90
2018-10-02T02:07:58.830Z,46.80
2018-10-02T02:13:02.052Z,46.80
2018-10-02T02:18:05.861Z,46.80
2018-10-02T02:23:09.097Z,46.80
2018-10-02T02:28:12.468Z,46.90
2018-10-02T02:33:15.678Z,46.80
2018-10-02T02:38:19.279Z,46.80
2018-10-02T02:43:22.581Z,46.70
2018-10-02T02:48:31.229Z,47.10
2018-10-02T02:53:34.459Z,47.00
2018-10-02T02:58:37.685Z,47.00
2018-10-02T03:03:40.879Z,47.10
2018-10-02T03:08:44.383Z,47.00
2018-10-02T03:13:47.759Z,47.20
2018-10-02T03:18:50.952Z,47.20
2018-10-02T03:23:54.251Z,47.10
2018-10-02T03:28:57.437Z,47.20
2018-10-02T03:34:00.886Z,47.00
2018-10-02T03:39:05.705Z,47.00
2018-10-02T03:44:09.326Z,47.00
2018-10-02T03:49:12.762Z,47.00
2018-10-02T03:54:16.050Z,47.20
2018-10-02T03:59:19.297Z,47.20
2018-10-02T04:04:22.675Z,47.10
2018-10-02T04:09:25.957Z,47.10
2018-10-02T04:14:29.139Z,47.20
2018-10-02T04:19:32.311Z,47.20
2018-10-02T04:24:35.596Z,47.20
2018-10-02T04:29:39.146Z,47.10
2018-10-02T04:34:42.409Z,47.10
2018-10-02T04:39:45.626Z,47.20
2018-10-02T04:44:49.200Z,47.20
2018-10-02T04:49:53.037Z,47.20
2018-10-02T04:54:56.556Z,47.30
2018-10-02T04:59:59.839Z,47.20
2018-10-02T05:05:03.094Z,47.40
2018-10-02T05:10:06.864Z,47.40
2018-10-02T05:15:10.490Z,47.30
2018-10-02T05:20:13.852Z,47.30
2018-10-02T05:25:17.050Z,47.30
2018-10-02T05:30:20.286Z,47.30
2018-10-02T05:35:23.584Z,47.30
2018-10-02T05:40:27.655Z,47.30
2018-10-02T05:45:30.893Z,47.50
2018-10-02T05:50:34.680Z,47.50
2018-10-02T05:55:38.003Z,47.50
2018-10-02T06:00:41.925Z,47.50
2018-10-02T06:05:45.243Z,47.40
2018-10-02T06:10:48.557Z,47.50
2018-10-02T06:15:51.811Z,47.50
2018-10-02T06:20:55.341Z,47.60
2018-10-02T06:25:59.439Z,47.50
2018-10-02T06:31:04.220Z,47.40
2018-10-02T06:36:07.709Z,47.30
2018-10-02T06:41:10.978Z,47.20
2018-10-02T06:46:14.505Z,47.10
2018-10-02T06:51:19.481Z,47.30
2018-10-02T06:56:22.893Z,47.40
2018-10-02T07:01:26.828Z,47.40
2018-10-02T07:06:30.086Z,47.20
2018-10-02T07:11:33.555Z,47.20
2018-10-02T07:16:36.929Z,47.20
2018-10-02T07:21:40.311Z,47.10
2018-10-02T07:26:43.585Z,47.10
2018-10-02T07:31:46.809Z,47.00
2018-10-02T07:36:50.067Z,46.90
2018-10-02T07:41:53.403Z,46.80
2018-10-02T07:46:56.650Z,46.80
2018-10-02T07:51:59.888Z,46.80
2018-10-02T07:57:03.176Z,46.90
2018-10-02T08:02:07.023Z,46.80
2018-10-02T08:07:10.345Z,46.70
2018-10-02T08:12:13.746Z,46.60
2018-10-02T08:17:16.940Z,46.50
2018-10-02T08:22:20.263Z,46.40
2018-10-02T08:27:23.708Z,46.30
2018-10-02T08:32:27.316Z,46.30
2018-10-02T08:37:30.908Z,46.20
2018-10-02T08:42:34.308Z,46.10
2018-10-02T08:47:37.839Z,46.00
2018-10-02T08:52:41.119Z,45.90
2018-10-02T08:57:44.368Z,45.90
2018-10-02T09:02:47.725Z,45.80
2018-10-02T09:07:50.931Z,45.80
2018-10-02T09:12:54.198Z,45.70
2018-10-02T09:17:58.220Z,45.70
2018-10-02T09:23:01.431Z,45.90
2018-10-02T09:28:04.922Z,44.90
2018-10-02T09:33:13.637Z,44.20
2018-10-02T09:38:22.313Z,43.80
2018-10-02T09:43:37.317Z,43.50
2018-10-02T09:48:40.716Z,43.00
2018-10-02T09:53:43.907Z,42.40
2018-10-02T09:58:47.421Z,41.90
2018-10-02T10:03:50.641Z,41.40
2018-10-02T10:08:53.914Z,41.40
2018-10-02T10:13:57.264Z,40.60
2018-10-02T10:19:00.463Z,40.80
2018-10-02T10:24:03.992Z,40.30
2018-10-02T10:29:07.246Z,39.90
2018-10-02T10:34:10.468Z,39.80
2018-10-02T10:39:13.945Z,39.40
2018-10-02T10:44:17.309Z,38.90
2018-10-02T10:49:20.641Z,38.50
2018-10-02T10:54:23.821Z,38.40
2018-10-02T10:59:27.115Z,38.60
2018-10-02T11:04:30.608Z,38.50
2018-10-02T11:09:34.579Z,38.60
2018-10-02T11:14:37.987Z,38.40
2018-10-02T11:19:41.415Z,38.40
2018-10-02T11:24:44.607Z,38.60
2018-10-02T11:29:48.115Z,38.50
2018-10-02T11:34:51.437Z,38.50
2018-10-02T11:39:54.771Z,38.30
2018-10-02T11:44:58.958Z,38.50
2018-10-02T11:50:03.581Z,39.00
2018-10-02T11:55:06.873Z,39.40
2018-10-02T12:00:10.599Z,39.60
2018-10-02T12:05:13.972Z,39.80
2018-10-02T12:10:17.471Z,39.80
2018-10-02T12:15:21.226Z,40.00
2018-10-02T12:20:24.557Z,39.90
2018-10-02T12:25:28.224Z,40.10
2018-10-02T12:30:31.570Z,40.30
2018-10-02T12:35:35.256Z,40.40
2018-10-02T12:40:38.498Z,40.60
2018-10-02T12:45:41.852Z,40.80
2018-10-02T12:50:45.219Z,40.80
2018-10-02T12:55:48.694Z,40.90
2018-10-02T13:00:52.128Z,41.10
2018-10-02T13:05:55.416Z,41.10
2018-10-02T13:10:58.719Z,41.10
2018-10-02T13:16:05.128Z,41.20
2018-10-02T13:21:08.897Z,41.10
2018-10-02T13:26:13.407Z,41.20
2018-10-02T13:31:16.676Z,41.30
2018-10-02T13:36:20.125Z,41.40
2018-10-02T13:41:24.225Z,41.50
2018-10-02T13:46:27.876Z,41.50
2018-10-02T13:51:31.110Z,41.60
2018-10-02T13:56:34.408Z,41.50
2018-10-02T14:01:37.671Z,41.60
2018-10-02T14:06:40.898Z,41.80
2018-10-02T14:11:44.198Z,41.70
2018-10-02T14:16:53.866Z,41.80
2018-10-02T14:21:59.356Z,41.80
2018-10-02T14:27:03.714Z,41.90
2018-10-02T14:32:07.578Z,42.10
2018-10-02T14:37:11.676Z,42.20
2018-10-02T14:42:14.982Z,42.20
2018-10-02T14:47:18.231Z,42.20
2018-10-02T14:52:22.392Z,42.30
2018-10-02T14:57:25.678Z,42.40
2018-10-02T15:02:29.023Z,42.40
2018-10-02T15:07:32.336Z,43.00
2018-10-02T15:12:35.679Z,43.20
2018-10-02T15:17:38.952Z,43.60
2018-10-02T15:22:42.245Z,43.80
2018-10-02T15:27:46.302Z,44.50
2018-10-02T15:32:50.830Z,44.00
2018-10-02T15:37:54.742Z,44.10
2018-10-02T15:42:59.211Z,44.30
2018-10-02T15:48:02.675Z,44.40
2018-10-02T15:53:06.565Z,44.40
2018-10-02T15:58:10.079Z,44.60
2018-10-02T16:03:13.413Z,44.70
2018-10-02T16:08:16.650Z,44.60
2018-10-02T16:13:20.095Z,44.70
2018-10-02T16:18:23.678Z,44.70
2018-10-02T16:23:26.961Z,44.80
2018-10-02T16:28:32.074Z,44.80
2018-10-02T16:33:37.118Z,44.60
2018-10-02T16:38:40.811Z,44.60
2018-10-02T16:43:45.062Z,44.50
2018-10-02T16:48:48.613Z,44.40
2018-10-02T16:53:52.187Z,44.60
2018-10-02T16:58:55.987Z,44.60
2018-10-02T17:04:00.008Z,44.70
2018-10-02T17:09:04.826Z,44.60
2018-10-02T17:14:08.449Z,44.50
2018-10-02T17:19:11.816Z,44.40
2018-10-02T17:24:15.662Z,44.50
2018-10-02T17:29:19.028Z,44.50
2018-10-02T17:34:22.357Z,44.40
2018-10-02T17:39:26.638Z,44.40
2018-10-02T17:44:29.976Z,44.30
2018-10-02T17:49:33.236Z,44.40
2018-10-02T17:54:36.790Z,44.60
2018-10-02T17:59:40.368Z,44.60
2018-10-02T18:04:43.757Z,44.80
2018-10-02T18:09:47.066Z,45.00
2018-10-02T18:14:50.324Z,44.80
2018-10-02T18:19:53.655Z,44.90
2018-10-02T18:24:57.677Z,44.90
2018-10-02T18:30:01.278Z,45.10
2018-10-02T18:35:05.341Z,45.70
2018-10-02T18:40:08.805Z,45.30
2018-10-02T18:45:12.794Z,45.20
2018-10-02T18:50:16.207Z,45.30
2018-10-02T18:55:19.603Z,45.30
2018-10-02T19:00:22.897Z,45.60
2018-10-02T19:05:27.152Z,45.80
2018-10-02T19:10:30.877Z,45.90
2018-10-02T19:15:40.167Z,46.10
2018-10-02T19:20:48.189Z,46.20
2018-10-02T19:25:57.047Z,46.20
2018-10-02T19:31:06.576Z,46.30
2018-10-02T19:36:10.518Z,46.30
2018-10-02T19:41:14.354Z,46.30
2018-10-02T19:46:28.529Z,46.40
2018-10-02T19:51:37.511Z,46.40
2018-10-02T19:56:40.932Z,48.00
2018-10-02T20:01:44.761Z,50.20
2018-10-02T20:06:48.270Z,50.90
2018-10-02T20:11:52.156Z,52.00
2018-10-02T20:16:55.574Z,52.80
2018-10-02T20:21:59.333Z,53.70
2018-10-02T20:27:02.922Z,53.90
2018-10-02T20:32:06.631Z,52.10
2018-10-02T20:37:10.012Z,50.90
2018-10-02T20:42:14.602Z,50.20
2018-10-02T20:47:18.390Z,49.70
2018-10-02T20:52:21.966Z,49.20
2018-10-02T20:57:25.242Z,48.90
2018-10-02T21:02:30.342Z,48.60
2018-10-02T21:07:33.804Z,48.30
2018-10-02T21:12:38.775Z,48.20
2018-10-02T21:17:42.296Z,48.00
2018-10-02T21:22:45.792Z,47.90
2018-10-02T21:27:49.102Z,47.80
2018-10-02T21:32:52.462Z,47.70
2018-10-02T21:37:56.030Z,47.70
2018-10-02T21:42:59.303Z,47.70
2018-10-02T21:48:03.588Z,47.60
2018-10-02T21:53:07.141Z,47.50
2018-10-02T21:58:10.582Z,48.10
2018-10-02T22:03:14.183Z,48.00
2018-10-02T22:08:17.760Z,47.40
2018-10-02T22:13:21.038Z,47.40
2018-10-02T22:18:24.370Z,47.30
2018-10-02T22:23:27.997Z,47.30
2018-10-02T22:28:31.641Z,47.20
2018-10-02T22:33:35.180Z,47.30
2018-10-02T22:38:38.398Z,47.40
2018-10-02T22:43:41.871Z,47.40
2018-10-02T22:48:45.159Z,47.40
2018-10-02T22:53:48.501Z,47.20
2018-10-02T22:58:52.243Z,47.10
2018-10-02T23:03:55.492Z,47.00
2018-10-02T23:08:58.817Z,47.00
2018-10-02T23:14:02.187Z,47.00
2018-10-02T23:19:05.707Z,47.00
2018-10-02T23:24:08.897Z,47.00
2018-10-02T23:29:12.197Z,47.00
2018-10-02T23:34:15.445Z,46.90
2018-10-02T23:39:18.877Z,46.90
2018-10-02T23:44:22.266Z,46.90
2018-10-02T23:49:25.493Z,46.80
2018-10-02T23:54:29.373Z,46.80
2018-10-02T23:59:32.795Z,46.80
